createdAt,value
2023-01-26T00:00:43.656Z,-1.3
2023-01-26T00:04:49.419Z,-1.4
2023-01-26T00:06:50.982Z,-1.3
2023-01-26T00:08:52.542Z,-1.4
2023-01-26T00:10:56.772Z,-1.3
2023-01-26T00:12:58.343Z,-1.4
2023-01-26T00:17:04.126Z,-1.3
2023-01-26T00:19:05.699Z,-1.3
2023-01-26T00:21:07.245Z,-1.3
2023-01-26T00:23:11.505Z,-1.3
2023-01-26T00:25:13.071Z,-1.3
2023-01-26T00:27:14.599Z,-1.2
2023-01-26T00:29:18.841Z,-1.2
2023-01-26T00:31:20.463Z,-1.2
2023-01-26T00:33:21.926Z,-1.2
2023-01-26T00:35:26.213Z,-1.2
2023-01-26T00:39:29.316Z,-1.2
2023-01-26T00:41:33.568Z,-1.1
2023-01-26T00:43:35.175Z,-1.3
2023-01-26T00:45:36.701Z,-1.2
2023-01-26T00:47:40.947Z,-1.3
2023-01-26T00:49:42.513Z,-1.3
2023-01-26T00:51:44.060Z,-1.2
2023-01-26T00:53:48.286Z,-1.3
2023-01-26T00:55:49.909Z,-1.2
2023-01-26T01:01:57.285Z,-1.2
2023-01-26T01:11:09.924Z,-1.2
2023-01-26T01:13:11.478Z,-1.2
2023-01-26T01:18:24.865Z,-1.2
2023-01-26T01:20:26.396Z,-1.1
2023-01-26T01:24:32.307Z,-1.3
2023-01-26T01:26:33.741Z,-1.2
2023-01-26T01:28:35.282Z,-1.2
2023-01-26T01:34:42.682Z,-1.1
2023-01-26T01:36:47.011Z,-1.2
2023-01-26T01:40:50.089Z,-1.1
2023-01-26T01:44:55.874Z,-1.1
2023-01-26T01:59:12.200Z,-1.1
2023-01-26T02:01:16.423Z,-1.1
2023-01-26T02:03:18.001Z,-1.1
2023-01-26T02:11:26.961Z,-0.9
2023-01-26T02:13:31.191Z,-0.9
2023-01-26T02:15:32.790Z,-1
2023-01-26T02:22:44.491Z,-1
2023-01-26T02:24:46.038Z,-0.9
2023-01-26T02:26:47.626Z,-1
2023-01-26T02:28:51.894Z,-1
2023-01-26T02:30:53.517Z,-0.9
2023-01-26T02:32:55.021Z,-0.9
2023-01-26T02:40:10.566Z,-0.9
2023-01-26T02:42:11.714Z,-0.9
2023-01-26T02:50:26.160Z,-0.9
2023-01-26T02:52:27.734Z,-0.9
2023-01-26T02:54:32.003Z,-0.9
2023-01-26T02:56:33.557Z,-1
2023-01-26T02:58:35.135Z,-0.9
2023-01-26T03:00:39.452Z,-1
2023-01-26T03:02:40.968Z,-0.9
2023-01-26T03:04:42.517Z,-0.9
2023-01-26T03:06:46.765Z,-0.8
2023-01-26T03:08:48.339Z,-0.9
2023-01-26T03:16:57.271Z,-0.8
2023-01-26T03:19:01.577Z,-0.8
2023-01-26T03:21:03.147Z,-0.8
2023-01-26T03:23:04.700Z,-0.8
2023-01-26T03:25:08.943Z,-0.7
2023-01-26T03:27:10.531Z,-0.8
2023-01-26T03:31:16.430Z,-0.7
2023-01-26T03:35:19.542Z,-0.7
2023-01-26T03:37:23.751Z,-0.8
2023-01-26T03:39:25.351Z,-0.6
2023-01-26T03:41:26.920Z,-0.7
2023-01-26T03:43:31.162Z,-0.7
2023-01-26T03:47:34.304Z,-0.8
2023-01-26T03:49:38.585Z,-0.6
2023-01-26T03:53:41.725Z,-0.7
2023-01-26T03:55:46.002Z,-0.7
2023-01-26T03:57:47.559Z,-0.7
2023-01-26T03:59:49.170Z,-0.7
2023-01-26T04:14:18.489Z,-0.7
2023-01-26T04:16:20.083Z,-0.7
2023-01-26T04:18:21.648Z,-0.7
2023-01-26T04:20:25.870Z,-0.7
2023-01-26T04:22:27.482Z,-0.5
2023-01-26T04:24:29.146Z,-0.6
2023-01-26T04:26:33.316Z,-0.6
2023-01-26T04:30:36.497Z,-0.6
2023-01-26T04:38:48.197Z,-0.4
2023-01-26T04:40:49.809Z,-0.4
2023-01-26T04:48:04.955Z,-0.5
2023-01-26T04:50:06.536Z,-0.5
2023-01-26T04:52:08.145Z,-0.5
2023-01-26T04:54:12.391Z,-0.5
2023-01-26T05:00:19.844Z,-0.4
2023-01-26T05:16:38.086Z,-0.4
2023-01-26T05:30:57.197Z,-0.3
2023-01-26T05:35:00.311Z,-0.3
2023-01-26T05:39:06.201Z,-0.3
2023-01-26T05:41:07.788Z,-0.2
2023-01-26T05:43:12.060Z,-0.3
2023-01-26T05:51:21.152Z,-0.2
2023-01-26T05:53:22.750Z,-0.2
2023-01-26T06:11:32.516Z,-0.1
2023-01-26T06:13:34.080Z,-0.2
2023-01-26T06:15:35.660Z,-0.1
2023-01-26T06:17:39.960Z,-0.1
2023-01-26T06:21:43.147Z,-0.1
2023-01-26T06:28:55.301Z,0
2023-01-26T06:30:57.006Z,-0.1
2023-01-26T06:37:04.328Z,0
2023-01-26T06:43:11.778Z,0
2023-01-26T06:52:10.795Z,0
2023-01-26T06:56:13.892Z,0
2023-01-26T07:02:21.477Z,0.1
2023-01-26T07:14:36.322Z,0.1
2023-01-26T07:18:42.276Z,0.2
2023-01-26T07:20:43.819Z,0.1
2023-01-26T07:24:49.701Z,0.2
2023-01-26T07:26:51.300Z,0.2
2023-01-26T07:38:12.290Z,0.2
2023-01-26T07:40:14.180Z,0.2
2023-01-26T07:47:25.165Z,0.3
2023-01-26T07:49:26.762Z,0.3
2023-01-26T07:53:32.633Z,0.2
2023-01-26T07:55:34.214Z,0.3
2023-01-26T07:59:40.116Z,0.3
2023-01-26T08:01:41.718Z,0.3
2023-01-26T08:03:43.330Z,0.4
2023-01-26T08:05:47.552Z,0.5
2023-01-26T08:09:50.782Z,0.5
2023-01-26T08:11:55.042Z,0.5
2023-01-26T08:13:56.650Z,0.6
2023-01-26T08:15:58.240Z,0.6
2023-01-26T08:18:02.689Z,0.6
2023-01-26T08:29:16.665Z,0.7
2023-01-26T08:31:18.390Z,0.7
2023-01-26T08:35:24.153Z,0.9
2023-01-26T08:37:25.741Z,0.9
2023-01-26T08:44:33.176Z,1.1
2023-01-26T08:46:34.778Z,1.1
2023-01-26T08:48:39.060Z,1.1
2023-01-26T08:50:40.708Z,1.2
2023-01-26T08:52:42.325Z,1.3
2023-01-26T08:59:58.829Z,1.4
2023-01-26T09:02:00.531Z,1.5
2023-01-26T09:04:04.714Z,1.5
2023-01-26T09:06:06.338Z,1.6
2023-01-26T09:08:07.943Z,1.7
2023-01-26T09:13:13.333Z,1.7
2023-01-26T09:15:14.962Z,1.9
2023-01-26T09:17:16.578Z,1.9
2023-01-26T09:19:20.875Z,2
2023-01-26T09:23:24.102Z,2
2023-01-26T09:25:28.511Z,2.1
2023-01-26T09:27:30.036Z,2.1
2023-01-26T09:29:31.670Z,2.1
2023-01-26T09:35:39.267Z,2.4
2023-01-26T09:41:46.865Z,2.3
2023-01-26T09:45:52.826Z,2.2
2023-01-26T09:47:54.478Z,2.2
2023-01-26T09:52:59.528Z,2.2
2023-01-26T09:57:02.829Z,2.7
2023-01-26T09:59:07.154Z,2.6
2023-01-26T10:01:08.819Z,2.7
2023-01-26T10:03:10.456Z,2.8
2023-01-26T10:11:22.440Z,4.5
2023-01-26T10:13:24.083Z,4.1
2023-01-26T10:15:25.799Z,4.7
2023-01-26T10:19:31.743Z,5
2023-01-26T10:21:33.416Z,5.8
2023-01-26T10:23:37.771Z,6.9
2023-01-26T10:25:39.455Z,6.9
2023-01-26T10:36:40.475Z,6.5
2023-01-26T10:38:42.196Z,6.1
2023-01-26T10:40:43.883Z,6.3
2023-01-26T10:44:49.967Z,6.5
2023-01-26T10:46:51.702Z,6.7
2023-01-26T10:48:56.110Z,6.8
2023-01-26T10:55:03.946Z,7
2023-01-26T10:57:05.685Z,7.3
2023-01-26T10:59:07.434Z,7.4
2023-01-26T11:01:11.927Z,7.5
2023-01-26T11:11:23.248Z,9.5
2023-01-26T11:13:27.731Z,9.5
2023-01-26T11:15:29.438Z,8.9
2023-01-26T11:17:31.210Z,9.4
2023-01-26T11:19:35.683Z,10.3
2023-01-26T11:21:37.458Z,9.9
2023-01-26T11:23:39.244Z,9.4
2023-01-26T11:25:43.685Z,10.1
2023-01-26T11:27:45.458Z,9.7
2023-01-26T11:29:47.278Z,9.8
2023-01-26T11:34:54.599Z,10.5
2023-01-26T11:36:56.374Z,10.2
2023-01-26T11:38:58.086Z,9
2023-01-26T11:41:02.529Z,9.5
2023-01-26T11:43:04.278Z,9.2
2023-01-26T11:45:06.065Z,9
2023-01-26T11:54:06.021Z,8.8
2023-01-26T12:00:28.623Z,8
2023-01-26T12:04:17.271Z,11
2023-01-26T12:18:50.820Z,8
2023-01-26T12:31:41.188Z,10.2
2023-01-26T12:35:44.647Z,10.2
2023-01-26T12:37:49.028Z,10.8
2023-01-26T12:39:50.823Z,10.8
2023-01-26T12:41:52.500Z,10.9
2023-01-26T12:43:56.872Z,11
2023-01-26T12:46:00.667Z,9.2
2023-01-26T12:48:00.567Z,9.5
2023-01-26T12:50:04.885Z,9.3
2023-01-26T12:52:06.635Z,9.1
2023-01-26T12:54:08.443Z,9.3
2023-01-26T13:00:16.491Z,8.3
2023-01-26T13:04:22.637Z,9
2023-01-26T13:08:28.724Z,8.5
2023-01-26T13:10:30.483Z,8
2023-01-26T13:12:32.192Z,7.9
2023-01-26T13:14:36.634Z,8
2023-01-26T13:16:38.359Z,7.9
2023-01-26T13:18:40.091Z,7.9
2023-01-26T13:20:44.497Z,7.8
2023-01-26T13:22:46.223Z,7.9
2023-01-26T13:24:47.955Z,7.9
2023-01-26T13:28:54.146Z,7.9
2023-01-26T13:30:55.897Z,7.8
2023-01-26T13:33:00.213Z,7.9
2023-01-26T13:37:03.811Z,7.9
2023-01-26T13:39:08.309Z,10.2
2023-01-26T13:41:10.156Z,9.5
2023-01-26T13:43:25.270Z,8.8
2023-01-26T13:45:16.433Z,8.4
2023-01-26T13:47:20.573Z,8
2023-01-26T13:49:20.083Z,7.8
2023-01-26T13:51:24.343Z,7.7
2023-01-26T13:53:26.060Z,7.7
2023-01-26T13:55:27.777Z,7.6
2023-01-26T13:57:32.139Z,7.6
2023-01-26T13:59:33.885Z,7.6
2023-01-26T14:01:35.566Z,7.6
2023-01-26T14:03:39.939Z,7.6
2023-01-26T14:05:41.660Z,7.7
2023-01-26T14:11:49.503Z,7.7
2023-01-26T14:13:51.309Z,7.8
2023-01-26T14:20:05.478Z,7.5
2023-01-26T14:29:05.427Z,7.5
2023-01-26T14:31:08.531Z,7.8
2023-01-26T14:33:09.029Z,8
2023-01-26T14:35:13.733Z,8.1
2023-01-26T14:37:15.308Z,7.9
2023-01-26T14:39:17.115Z,7.7
2023-01-26T14:41:21.600Z,7.7
2023-01-26T14:47:29.418Z,7.5
2023-01-26T14:49:31.258Z,7.4
2023-01-26T14:51:33.034Z,7.4
2023-01-26T14:55:39.345Z,7.3
2023-01-26T14:57:41.130Z,7.3
2023-01-26T14:59:45.643Z,7.3
2023-01-26T15:03:49.260Z,7.3
2023-01-26T15:05:53.754Z,7.3
2023-01-26T15:07:55.557Z,7.2
2023-01-26T15:09:57.364Z,7.2
2023-01-26T15:12:01.830Z,7.2
2023-01-26T15:16:05.435Z,7.1
2023-01-26T15:18:09.908Z,7.1
2023-01-26T15:20:12.078Z,7
2023-01-26T15:22:13.648Z,7
2023-01-26T15:24:18.123Z,6.9
2023-01-26T15:28:21.628Z,7
2023-01-26T15:30:26.100Z,6.9
2023-01-26T15:32:28.215Z,6.9
2023-01-26T15:34:29.787Z,6.9
2023-01-26T15:36:34.161Z,6.9
2023-01-26T15:38:35.953Z,6.9
2023-01-26T15:40:37.732Z,6.8
2023-01-26T15:42:42.107Z,6.8
2023-01-26T15:44:43.867Z,6.8
2023-01-26T15:46:45.569Z,6.8
2023-01-26T15:48:49.860Z,6.7
2023-01-26T15:50:51.548Z,6.7
2023-01-26T15:52:53.259Z,6.7
2023-01-26T16:00:06.175Z,6.7
2023-01-26T16:04:12.468Z,6.6
2023-01-26T16:06:14.259Z,6.7
2023-01-26T16:12:31.573Z,6.8
2023-01-26T16:14:24.124Z,6.7
2023-01-26T16:16:28.529Z,6.6
2023-01-26T16:20:32.109Z,6.6
2023-01-26T16:22:36.574Z,6.6
2023-01-26T16:26:40.157Z,6.5
2023-01-26T16:28:44.738Z,6.5
2023-01-26T16:30:46.485Z,6.4
2023-01-26T16:34:52.703Z,6.4
2023-01-26T16:38:56.296Z,6.4
2023-01-26T16:41:00.776Z,6.4
2023-01-26T16:43:02.557Z,6.4
2023-01-26T16:45:04.331Z,6.4
2023-01-26T16:47:08.794Z,6.4
2023-01-26T16:49:10.623Z,6.4
2023-01-26T16:51:12.327Z,6.4
2023-01-26T16:53:16.828Z,6.5
2023-01-26T16:55:18.601Z,6.4
2023-01-26T16:57:20.387Z,6.4
2023-01-26T16:59:24.894Z,6.4
2023-01-26T17:01:26.665Z,6.3
2023-01-26T17:03:28.453Z,6.3
2023-01-26T17:05:32.939Z,6.3
2023-01-26T17:09:36.536Z,6.2
2023-01-26T17:11:40.980Z,6.2
2023-01-26T17:13:42.764Z,6.2
2023-01-26T17:15:44.665Z,6.2
2023-01-26T17:17:49.204Z,6.3
2023-01-26T17:19:50.975Z,6.2
2023-01-26T17:21:52.731Z,6.2
2023-01-26T17:23:57.280Z,6.2
2023-01-26T17:25:59.000Z,6.1
2023-01-26T17:28:00.774Z,6.1
2023-01-26T17:30:05.281Z,6.1
2023-01-26T17:34:08.844Z,6.1
2023-01-26T17:36:13.318Z,6.1
2023-01-26T17:38:15.112Z,6.1
2023-01-26T17:40:16.925Z,6.1
2023-01-26T17:42:21.398Z,6.1
2023-01-26T17:44:23.193Z,6.1
2023-01-26T17:46:25.006Z,6.2
2023-01-26T17:53:38.009Z,6.1
2023-01-26T17:57:44.283Z,6
2023-01-26T17:59:46.110Z,6
2023-01-26T18:01:47.835Z,6.1
2023-01-26T18:03:52.291Z,6
2023-01-26T18:05:54.098Z,5.9
2023-01-26T18:07:55.857Z,6
2023-01-26T18:10:00.337Z,6
2023-01-26T18:12:02.145Z,6
2023-01-26T18:14:03.891Z,6
2023-01-26T18:16:08.399Z,6
2023-01-26T18:18:10.176Z,5.9
2023-01-26T18:20:11.942Z,5.9
2023-01-26T18:22:16.403Z,5.9
2023-01-26T18:24:18.213Z,5.9
2023-01-26T18:26:19.941Z,5.8
2023-01-26T18:28:24.410Z,5.8
2023-01-26T18:30:26.152Z,5.8
2023-01-26T18:32:27.974Z,5.7
2023-01-26T18:34:32.379Z,5.7
2023-01-26T18:36:34.150Z,5.7
2023-01-26T18:38:35.922Z,5.6
2023-01-26T18:40:40.354Z,5.7
2023-01-26T18:42:42.156Z,5.7
2023-01-26T18:44:43.910Z,5.7
2023-01-26T18:46:48.349Z,5.6
2023-01-26T18:50:51.896Z,5.6
2023-01-26T18:52:56.337Z,5.6
2023-01-26T18:54:58.128Z,5.6
2023-01-26T18:56:59.903Z,5.5
2023-01-26T18:59:04.975Z,5.4
2023-01-26T19:03:08.536Z,5.4
2023-01-26T19:05:13.430Z,5.4
2023-01-26T19:07:14.735Z,5.4
2023-01-26T19:09:16.492Z,5.3
2023-01-26T19:11:20.939Z,5.4
2023-01-26T19:13:22.710Z,5.4
2023-01-26T19:15:24.448Z,5.4
2023-01-26T19:17:28.882Z,5.4
2023-01-26T19:23:36.855Z,5.4
2023-01-26T19:25:38.620Z,5.4
2023-01-26T19:27:40.408Z,5.4
2023-01-26T19:29:44.845Z,5.4
2023-01-26T19:31:46.723Z,5.3
2023-01-26T19:33:48.365Z,5.3
2023-01-26T19:37:54.561Z,5.3
2023-01-26T19:39:56.339Z,5.3
2023-01-26T19:42:00.759Z,5.2
2023-01-26T19:44:02.557Z,5.2
2023-01-26T19:46:04.324Z,5.2
2023-01-26T19:52:12.250Z,5.2
2023-01-26T19:54:16.692Z,5.2
2023-01-26T19:56:18.479Z,5.2
2023-01-26T20:00:24.651Z,5.2
2023-01-26T20:02:26.489Z,5.2
2023-01-26T20:04:28.175Z,5.1
2023-01-26T20:06:32.621Z,5.1
2023-01-26T20:08:34.374Z,5
2023-01-26T20:10:36.141Z,5
2023-01-26T20:14:42.341Z,4.9
2023-01-26T20:16:44.081Z,4.8
2023-01-26T20:18:48.495Z,4.8
2023-01-26T20:20:50.280Z,4.7
2023-01-26T20:22:52.018Z,4.7
2023-01-26T20:25:02.554Z,4.6
2023-01-26T20:27:04.452Z,4.5
2023-01-26T20:29:06.066Z,4.5
2023-01-26T20:31:10.642Z,4.4
2023-01-26T20:33:12.245Z,4.2
2023-01-26T20:35:14.000Z,4.1
2023-01-26T20:37:18.411Z,4.1
2023-01-26T20:39:20.139Z,4.1
2023-01-26T20:41:21.929Z,4
2023-01-26T20:43:26.317Z,4
2023-01-26T20:49:34.168Z,4
2023-01-26T20:57:43.780Z,4
2023-01-26T20:59:45.523Z,4
2023-01-26T21:01:49.943Z,4
2023-01-26T21:05:53.347Z,3.9
2023-01-26T21:07:57.838Z,3.9
2023-01-26T21:12:01.201Z,3.9
2023-01-26T21:14:05.609Z,3.9
2023-01-26T21:16:07.332Z,3.9
2023-01-26T21:18:09.062Z,3.8
2023-01-26T21:23:15.051Z,3.8
2023-01-26T21:25:16.792Z,3.5
2023-01-26T21:27:18.498Z,3.4
2023-01-26T21:29:22.916Z,3.3
2023-01-26T21:31:24.665Z,3.2
2023-01-26T21:33:26.335Z,3.1
2023-01-26T21:40:40.255Z,3
2023-01-26T21:42:41.938Z,3
2023-01-26T21:44:46.371Z,3
2023-01-26T21:46:48.008Z,3.1
2023-01-26T21:48:49.681Z,3.1
2023-01-26T21:50:55.894Z,3.1
2023-01-26T21:52:55.798Z,3.2
2023-01-26T21:54:57.496Z,3.2
2023-01-26T21:57:01.904Z,3.3
2023-01-26T21:59:03.599Z,3.3
2023-01-26T22:01:05.411Z,3.4
2023-01-26T22:03:09.679Z,3.4
2023-01-26T22:05:11.371Z,3.5
2023-01-26T22:07:13.058Z,3.5
2023-01-26T22:09:17.449Z,3.5
2023-01-26T22:11:19.131Z,3.5
2023-01-26T22:13:22.508Z,3.5
2023-01-26T22:18:34.215Z,3.6
2023-01-26T22:20:35.914Z,3.8
2023-01-26T22:22:37.593Z,3.8
2023-01-26T22:26:43.732Z,3.8
2023-01-26T22:34:53.293Z,3.8
2023-01-26T22:38:59.411Z,3.8
2023-01-26T22:41:01.140Z,3.8
2023-01-26T22:43:05.537Z,3.7
2023-01-26T22:47:08.983Z,3.8
2023-01-26T22:51:17.261Z,3.7
2023-01-26T22:53:16.822Z,3.8
2023-01-26T22:58:33.156Z,3.8
2023-01-26T23:00:33.095Z,3.8
2023-01-26T23:02:34.755Z,3.8
2023-01-26T23:04:39.274Z,3.8
2023-01-26T23:06:40.883Z,3.8
2023-01-26T23:08:42.611Z,3.8
2023-01-26T23:15:53.205Z,3.8
2023-01-26T23:17:54.943Z,3.8
2023-01-26T23:19:59.347Z,3.8
2023-01-26T23:22:01.061Z,3.8
2023-01-26T23:26:07.163Z,3.7
2023-01-26T23:30:11.115Z,3.8
2023-01-26T23:32:15.068Z,3.7
2023-01-26T23:34:16.778Z,3.7
2023-01-26T23:43:31.209Z,3.7
2023-01-26T23:45:32.940Z,3.7
2023-01-26T23:47:37.529Z,3.7
2023-01-26T23:59:53.008Z,3.7
